»·PEaware :: DCM205 KRDD-KMRY

DCM205 :: KRDD-KMRY

FLIGHT INFORMATION

Flight Status: Arrived
Operator:
DotCom
More flights by this operator :: More flights under this callsign
Pilot: Chris S. (2433)
Aircraft: AIRBUS A320
(A320)
More flights by this aircraft type
Origin: KRDD Redding Mun
United States
Destination: KMRY Monterey Peninsula
United States
More flights between these airports :: More routes between these airports
Route: HOMAN3 RBL ENI PYE V27 SHOEY
File this flight plan on PilotEdge
Remarks:
Altitude:
(Current/Filed)
33,000ft
Speed:
(Current/Filed)
450kts
Departed: 10-Jul-20 07:33 AM
Arrived: 10-Jul-20 08:44 AM
Distance/Time
Traveled:
236nm/1:11
Distance/Time
To Go:
Arrived

Flight Plot

Page will automatically refresh every two minutes.

Flight plan parsing failed; only flown route is shown


Map Options




Map Legend


Flown Route
Filed Route
Departure Airport
Arrival Airport
Navaid (VOR, NDB)
Fix

Horizontal Profiles

Position Reports

Time Latitude Longitude Heading Altitude Ground
Speed
10-Jul-20 07:11 40.505096 -122.299163 315 516ft 0kts
10-Jul-20 07:12 40.505096 -122.299163 315 516ft 0kts
10-Jul-20 07:13 40.505096 -122.299163 315 516ft 0kts
10-Jul-20 07:14 40.505096 -122.299163 315 516ft 0kts
10-Jul-20 07:15 40.505096 -122.299163 315 516ft 0kts
10-Jul-20 07:16 40.505096 -122.299163 315 516ft 0kts
10-Jul-20 07:18 40.505096 -122.299163 315 516ft 0kts
10-Jul-20 07:19 40.505096 -122.299163 315 516ft 0kts
10-Jul-20 07:20 40.505096 -122.299163 315 516ft 0kts
10-Jul-20 07:21 40.505096 -122.299163 315 516ft 0kts
10-Jul-20 07:22 40.505096 -122.299163 315 516ft 0kts
10-Jul-20 07:23 40.505096 -122.299163 315 516ft 0kts
10-Jul-20 07:24 40.504827 -122.298905 338 516ft 2kts
10-Jul-20 07:25 40.504326 -122.298816 2 516ft 0kts
10-Jul-20 07:26 40.504327 -122.298816 2 516ft 0kts
10-Jul-20 07:27 40.505130 -122.298440 20 516ft 11kts
10-Jul-20 07:28 40.508998 -122.296452 33 516ft 13kts
10-Jul-20 07:29 40.513862 -122.296327 0 516ft 21kts
10-Jul-20 07:30 40.520120 -122.296146 35 516ft 8kts
10-Jul-20 07:31 40.520159 -122.296102 44 516ft 0kts
10-Jul-20 07:32 40.519491 -122.294841 180 516ft 15kts
10-Jul-20 07:32 40.493322 -122.294671 178 1145ft 157kts
10-Jul-20 07:34 40.458146 -122.234517 115 2653ft 231kts
10-Jul-20 07:35 40.417470 -122.156561 131 5064ft 272kts
10-Jul-20 07:35 40.361865 -122.134824 200 7622ft 274kts
10-Jul-20 07:37 40.274104 -122.176370 194 10529ft 288kts
10-Jul-20 07:37 40.204364 -122.202033 199 11471ft 333kts
10-Jul-20 07:39 40.095241 -122.247098 211 13631ft 352kts
10-Jul-20 07:39 40.028603 -122.311294 219 15198ft 362kts
10-Jul-20 07:40 39.949641 -122.392027 216 17526ft 359kts
10-Jul-20 07:42 39.854220 -122.481792 220 19774ft 365kts
10-Jul-20 07:42 39.786821 -122.549930 219 21238ft 370kts
10-Jul-20 07:43 39.704489 -122.632133 219 22827ft 376kts
10-Jul-20 07:44 39.620758 -122.715425 219 24268ft 381kts
10-Jul-20 07:45 39.536355 -122.799289 219 25567ft 385kts
10-Jul-20 07:46 39.450479 -122.884123 219 26806ft 390kts
10-Jul-20 07:47 39.363851 -122.969576 219 27958ft 395kts
10-Jul-20 07:48 39.275952 -123.056007 219 29104ft 398kts
10-Jul-20 07:49 39.188465 -123.141686 219 30620ft 390kts
10-Jul-20 07:50 39.102110 -123.225122 215 31962ft 386kts
10-Jul-20 07:51 38.996500 -123.251431 175 33039ft 416kts
10-Jul-20 07:52 38.884726 -123.202485 169 32843ft 416kts
10-Jul-20 07:53 38.774685 -123.157390 169 31879ft 424kts
10-Jul-20 07:54 38.661869 -123.109487 169 30893ft 428kts
10-Jul-20 07:55 38.549291 -123.062551 168 29903ft 422kts
10-Jul-20 07:56 38.438480 -123.016380 168 28916ft 416kts
10-Jul-20 07:57 38.329094 -122.970924 168 27928ft 410kts
10-Jul-20 07:58 38.213855 -122.923461 167 26957ft 453kts
10-Jul-20 07:59 38.092845 -122.873288 167 25965ft 456kts
10-Jul-20 08:00 37.972850 -122.821441 165 24973ft 451kts
10-Jul-20 08:01 37.854757 -122.770285 165 23983ft 446kts
10-Jul-20 08:02 37.739226 -122.720234 165 22069ft 433kts
10-Jul-20 08:03 37.626288 -122.671715 164 20243ft 424kts
10-Jul-20 08:04 37.516031 -122.624339 164 18316ft 413kts
10-Jul-20 08:05 37.408394 -122.578275 163 16354ft 402kts
10-Jul-20 08:06 37.303704 -122.533611 163 14433ft 392kts
10-Jul-20 08:07 37.201731 -122.490241 163 12609ft 382kts
10-Jul-20 08:08 37.102030 -122.447789 160 11012ft 377kts
10-Jul-20 08:09 37.022764 -122.381409 145 10893ft 313kts
10-Jul-20 08:10 36.956178 -122.322115 145 9960ft 283kts
10-Jul-20 08:11 36.894539 -122.261220 142 8213ft 281kts
10-Jul-20 08:12 36.833977 -122.201625 141 6576ft 274kts
10-Jul-20 08:13 36.764808 -122.180263 191 4835ft 269kts
10-Jul-20 08:14 36.691303 -122.200310 193 3035ft 271kts
10-Jul-20 08:15 36.627727 -122.176300 115 2576ft 236kts
10-Jul-20 08:16 36.631389 -122.104711 74 2600ft 208kts
10-Jul-20 08:17 36.642050 -122.033861 74 2598ft 207kts
10-Jul-20 08:18 36.629668 -121.971285 109 2511ft 181kts
10-Jul-20 08:19 36.611043 -121.915690 112 1241ft 155kts
10-Jul-20 08:20 36.595066 -121.868547 113 1034ft 166kts
10-Jul-20 08:21 36.582732 -121.807433 69 2751ft 206kts
10-Jul-20 08:22 36.609634 -121.738193 62 4887ft 229kts
10-Jul-20 08:23 36.638249 -121.666894 62 4992ft 230kts
10-Jul-20 08:24 36.667026 -121.595465 59 4989ft 230kts
10-Jul-20 08:25 36.717456 -121.599801 304 5002ft 230kts
10-Jul-20 08:26 36.731750 -121.676677 277 4995ft 232kts
10-Jul-20 08:27 36.706904 -121.739922 185 4989ft 238kts
10-Jul-20 08:28 36.671390 -121.685010 91 5006ft 233kts
10-Jul-20 08:29 36.708671 -121.635545 349 4991ft 227kts
10-Jul-20 08:30 36.741205 -121.696167 274 5002ft 232kts
10-Jul-20 08:31 36.743776 -121.784962 273 4945ft 260kts
10-Jul-20 08:32 36.745671 -121.874978 273 3620ft 259kts
10-Jul-20 08:33 36.745939 -121.962012 273 2982ft 234kts
10-Jul-20 08:34 36.745208 -122.041110 273 2987ft 223kts
10-Jul-20 08:35 36.743852 -122.118676 273 2993ft 223kts
10-Jul-20 08:36 36.714820 -122.176344 180 2978ft 210kts
10-Jul-20 08:37 36.682262 -122.127821 104 3006ft 197kts
10-Jul-20 08:38 36.661424 -122.064418 108 2998ft 198kts
10-Jul-20 08:39 36.641354 -122.005032 107 2698ft 162kts
10-Jul-20 08:40 36.624793 -121.956022 109 1912ft 151kts
10-Jul-20 08:41 36.608650 -121.908485 113 1119ft 149kts
10-Jul-20 08:42 36.592586 -121.860830 114 320ft 144kts
10-Jul-20 08:43 36.583923 -121.836249 181 219ft 12kts
10-Jul-20 08:44 36.584169 -121.838930 292 219ft 18kts
10-Jul-20 08:45 36.586616 -121.845996 302 219ft 20kts
10-Jul-20 08:46 36.587186 -121.848704 242 219ft 0kts
10-Jul-20 08:47 36.587186 -121.848704 242 219ft 0kts
10-Jul-20 08:48 36.587186 -121.848704 242 219ft 0kts

Navigation Log

Ident Type
Flight plan parsing failed, navigation log unavailable